Time;durP1;ratioP1;P1;durP2;ratioP2;P2;SDS_P1;SDS_P2;PMS_P1;PMS_P2;Temp;Humidity;BMP_temperature;BMP_pressure;BME280_temperature;BME280_humidity;BME280_pressure;Samples;Min_cycle;Max_cycle;Signal;HPM_P1;HPM_P2
2022/05/19 00:02:09;;;;;;;27.10;16.98;;;;;;;22.12;61.65;101648.25;5052652;28;20037;-61
2022/05/19 00:04:34;;;;;;;25.13;16.95;;;;;;;22.08;61.55;101643.81;5052693;28;20029;-61
2022/05/19 00:07:01;;;;;;;25.60;17.33;;;;;;;22.11;61.75;101634.78;5052684;28;20044;-61
2022/05/19 00:09:26;;;;;;;27.92;17.45;;;;;;;22.03;62.37;101640.34;5052378;28;20083;-61
2022/05/19 00:11:54;;;;;;;29.67;17.80;;;;;;;22.09;62.17;101633.94;5052755;28;20017;-61
2022/05/19 00:14:20;;;;;;;25.85;17.67;;;;;;;22.06;61.92;101629.53;5052871;28;20029;-61
2022/05/19 00:16:45;;;;;;;23.98;16.95;;;;;;;22.09;61.87;101631.25;5052774;28;20021;-61
2022/05/19 00:19:11;;;;;;;26.00;17.40;;;;;;;22.02;62.26;101629.63;5053226;28;20402;-60
2022/05/19 00:21:38;;;;;;;28.00;17.42;;;;;;;22.05;61.79;101624.16;5052681;28;20025;-60
2022/05/19 00:24:04;;;;;;;27.60;17.60;;;;;;;21.99;62.19;101619.81;5052552;28;20029;-61
2022/05/19 00:26:29;;;;;;;27.25;16.60;;;;;;;22.00;61.80;101618.88;5055516;28;20066;-61
2022/05/19 00:28:55;;;;;;;26.00;17.33;;;;;;;22.02;62.18;101619.75;5056138;28;20017;-61
2022/05/19 00:31:20;;;;;;;26.95;17.20;;;;;;;21.95;61.96;101610.06;5056070;28;20470;-61
2022/05/19 00:33:46;;;;;;;26.42;17.38;;;;;;;21.99;61.87;101609.06;5056007;28;20489;-61
2022/05/19 00:36:16;;;;;;;23.00;16.52;;;;;;;21.96;62.28;101606.44;5055910;28;20017;-61
2022/05/19 00:38:42;;;;;;;28.92;17.35;;;;;;;21.88;62.10;101606.59;5055984;28;20025;-61
2022/05/19 00:41:09;;;;;;;26.90;17.52;;;;;;;21.86;62.49;101610.28;5055974;28;20035;-61
2022/05/19 00:43:40;;;;;;;25.35;17.42;;;;;;;21.86;62.17;101607.59;5055913;28;20033;-61
2022/05/19 00:46:18;;;;;;;30.02;17.65;;;;;;;21.77;62.31;101597.94;5055903;28;20025;-61
2022/05/19 00:48:51;;;;;;;26.10;17.17;;;;;;;21.81;62.21;101598.75;5055930;28;20053;-61
2022/05/19 00:51:20;;;;;;;27.75;17.48;;;;;;;21.81;62.30;101596.94;5055407;28;20044;-62
2022/05/19 00:53:54;;;;;;;27.38;18.02;;;;;;;21.66;62.78;101600.84;5055602;28;20033;-61
2022/05/19 00:56:44;;;;;;;26.73;18.23;;;;;;;21.60;63.01;101592.06;5055507;28;20091;-61
2022/05/19 00:59:14;;;;;;;29.33;18.13;;;;;;;21.54;63.18;101586.81;5055590;28;20462;-61
2022/05/19 01:01:43;;;;;;;25.77;18.13;;;;;;;21.49;63.37;101594.97;5055514;28;20032;-61
2022/05/19 01:04:24;;;;;;;25.60;17.33;;;;;;;21.41;63.55;101595.19;5055524;28;20021;-62
2022/05/19 01:06:54;;;;;;;24.48;17.63;;;;;;;21.50;63.29;101594.09;5055401;28;20033;-61
2022/05/19 01:09:19;;;;;;;28.67;18.25;;;;;;;21.47;63.33;101583.38;5055460;28;20036;-61
2022/05/19 01:11:45;;;;;;;24.90;17.85;;;;;;;21.50;63.44;101576.13;5055268;28;20028;-61
2022/05/19 01:14:10;;;;;;;26.00;17.73;;;;;;;21.48;63.64;101575.28;5055378;28;20079;-61
2022/05/19 01:16:37;;;;;;;29.40;17.92;;;;;;;21.35;64.11;101567.53;5054990;28;20079;-61
2022/05/19 01:19:23;;;;;;;29.13;18.17;;;;;;;21.37;63.95;101566.59;5055384;28;20025;-62
2022/05/19 01:21:56;;;;;;;29.77;18.50;;;;;;;21.38;64.02;101562.09;5055101;28;20025;-62
2022/05/19 01:24:35;;;;;;;30.38;19.48;;;;;;;21.35;63.63;101556.78;5055095;28;20025;-62
2022/05/19 01:27:01;;;;;;;27.52;18.58;;;;;;;21.34;64.07;101560.38;5054960;28;20025;-62
2022/05/19 01:29:28;;;;;;;26.52;18.50;;;;;;;21.28;64.20;101558.66;5036972;28;20532;-62
2022/05/19 01:32:00;;;;;;;29.25;19.17;;;;;;;21.33;64.50;101553.25;5054880;28;20020;-62
2022/05/19 01:34:32;;;;;;;29.65;18.77;;;;;;;21.25;64.19;101546.19;5054806;28;20056;-61
2022/05/19 01:36:58;;;;;;;29.92;19.40;;;;;;;21.19;64.48;101548.13;5054131;28;20128;-62
2022/05/19 01:39:27;;;;;;;28.15;18.98;;;;;;;21.24;64.30;101541.75;5054746;28;20025;-61
2022/05/19 01:42:30;;;;;;;27.33;18.98;;;;;;;21.31;63.49;101539.78;5054520;28;20111;-62
2022/05/19 01:45:10;;;;;;;23.52;18.55;;;;;;;21.31;63.82;101526.34;5054750;28;20037;-62
2022/05/19 01:47:51;;;;;;;27.63;19.30;;;;;;;21.29;63.83;101524.63;5054637;28;20108;-62
2022/05/19 01:50:39;;;;;;;30.87;18.63;;;;;;;21.23;64.21;101529.19;5054222;28;20035;-62
2022/05/19 01:53:15;;;;;;;26.02;18.67;;;;;;;21.15;65.07;101532.97;5054499;28;20025;-61
2022/05/19 01:56:20;;;;;;;29.42;18.88;;;;;;;21.19;63.90;101530.19;5054404;28;20471;-62
2022/05/19 01:59:16;;;;;;;29.02;19.92;;;;;;;21.07;65.18;101530.47;5054458;28;20032;-62
2022/05/19 02:01:48;;;;;;;28.10;20.38;;;;;;;21.02;65.65;101525.19;5054445;28;20470;-61
2022/05/19 02:04:39;;;;;;;29.83;20.00;;;;;;;21.00;65.08;101537.78;5054286;28;20029;-62
2022/05/19 02:07:09;;;;;;;25.17;18.45;;;;;;;20.99;65.82;101529.75;5054162;28;20032;-62
2022/05/19 02:09:40;;;;;;;29.50;19.80;;;;;;;20.96;66.00;101524.44;5054273;28;20032;-61
2022/05/19 02:12:08;;;;;;;27.53;19.67;;;;;;;21.02;65.91;101525.19;5054193;28;20059;-62
2022/05/19 02:14:48;;;;;;;27.73;19.15;;;;;;;20.98;65.60;101523.50;5054392;28;20028;-62
2022/05/19 02:17:20;;;;;;;26.23;18.77;;;;;;;20.87;66.21;101517.47;5054227;28;20078;-61
2022/05/19 02:19:48;;;;;;;;;;;;;;;21.02;63.62;101519.81;5054314;28;20029;-62
2022/05/19 02:22:18;;;;;;;26.55;19.02;;;;;;;20.92;66.31;101514.69;5054092;28;19927;-62
2022/05/19 02:25:11;;;;;;;31.98;19.35;;;;;;;20.95;65.37;101526.25;5053916;28;20490;-62
2022/05/19 02:28:03;;;;;;;28.40;19.00;;;;;;;20.90;65.52;101525.47;4973224;28;20492;-62
2022/05/19 02:30:33;;;;;;;27.90;19.30;;;;;;;20.86;66.43;101534.50;4971279;28;20039;-62
2022/05/19 02:32:59;;;;;;;26.85;17.20;;;;;;;20.90;66.37;101532.66;4973034;28;20474;-61
2022/05/19 02:35:30;;;;;;;22.05;15.40;;;;;;;20.88;65.76;101531.78;4972902;28;20030;-62
2022/05/19 02:37:59;;;;;;;25.27;18.88;;;;;;;20.78;66.21;101528.41;4973031;28;20035;-62
2022/05/19 02:40:28;;;;;;;24.73;17.40;;;;;;;20.83;66.78;101529.19;4972969;28;20515;-62
2022/05/19 02:42:54;;;;;;;25.25;17.70;;;;;;;20.75;67.00;101534.72;4972780;28;20069;-62
2022/05/19 02:45:21;;;;;;;26.80;17.58;;;;;;;20.73;66.98;101541.06;4972913;28;20095;-61
2022/05/19 02:47:47;;;;;;;25.50;17.42;;;;;;;20.76;66.77;101538.28;4972649;28;20110;-62
2022/05/19 02:50:14;;;;;;;25.83;16.55;;;;;;;20.72;66.74;101533.88;4969985;28;20563;-62
2022/05/19 02:52:40;;;;;;;26.05;17.00;;;;;;;20.63;67.43;101536.75;4953468;29;20070;-61
2022/05/19 02:55:06;;;;;;;23.13;15.85;;;;;;;20.61;67.22;101538.59;4953343;29;20070;-62
2022/05/19 02:57:32;;;;;;;24.92;15.88;;;;;;;20.70;66.96;101554.53;4953216;29;20139;-62
2022/05/19 02:59:58;;;;;;;21.70;14.35;;;;;;;20.74;66.33;101545.50;4953471;29;20039;-62
2022/05/19 03:02:23;;;;;;;22.40;15.38;;;;;;;20.67;66.90;101549.22;4953323;29;20035;-61
2022/05/19 03:04:49;;;;;;;21.83;15.27;;;;;;;20.71;66.69;101545.56;5003916;28;20420;-62
2022/05/19 03:07:14;;;;;;;21.73;13.98;;;;;;;20.69;66.68;101558.13;5033379;28;20470;-61
2022/05/19 03:09:45;;;;;;;19.73;14.48;;;;;;;20.72;66.33;101596.53;5033317;28;20076;-61
2022/05/19 03:12:11;;;;;;;30.63;15.73;;;;;;;20.54;67.90;101671.19;5033141;28;20029;-62
2022/05/19 03:14:37;;;;;;;27.73;19.10;;;;;;;20.44;68.54;101674.00;5033111;28;20025;-62
2022/05/19 03:17:08;;;;;;;31.73;20.77;;;;;;;20.37;69.15;101666.97;5033312;28;20108;-62
2022/05/19 03:19:35;;;;;;;24.50;15.13;;;;;;;20.40;66.67;101677.66;5033100;28;20037;-62
2022/05/19 03:22:02;;;;;;;19.95;15.30;;;;;;;20.47;67.10;101695.44;5033101;28;20356;-62
2022/05/19 03:24:27;;;;;;;22.20;15.43;;;;;;;20.52;67.12;101691.84;5033342;28;20083;-62
2022/05/19 03:26:53;;;;;;;21.58;14.95;;;;;;;20.62;66.76;101680.88;5032924;28;20029;-62
2022/05/19 03:29:19;;;;;;;22.00;13.65;;;;;;;20.79;66.00;101698.53;5033254;28;20025;-62
2022/05/19 03:31:44;;;;;;;24.35;15.02;;;;;;;20.83;66.24;101700.22;5033236;28;20029;-62
2022/05/19 03:34:10;;;;;;;20.48;14.85;;;;;;;20.91;66.15;101690.25;5032929;28;20072;-62
2022/05/19 03:36:36;;;;;;;24.48;14.60;;;;;;;20.95;66.41;101686.59;5032988;28;20065;-62
2022/05/19 03:39:01;;;;;;;21.00;15.73;;;;;;;20.99;65.68;101694.56;5033014;28;20056;-62
2022/05/19 03:41:26;;;;;;;20.88;14.90;;;;;;;21.02;65.83;101702.53;5032908;28;20022;-62
2022/05/19 03:43:52;;;;;;;23.73;15.15;;;;;;;21.06;65.68;101689.94;5032977;28;20367;-61
2022/05/19 03:46:17;;;;;;;19.92;15.30;;;;;;;21.07;65.84;101702.47;5032912;28;20017;-61
2022/05/19 03:48:43;;;;;;;24.48;15.32;;;;;;;21.09;66.03;101707.81;5033059;28;20033;-61
2022/05/19 03:51:11;;;;;;;23.15;15.13;;;;;;;21.14;65.65;101703.22;5042193;28;20120;-62
2022/05/19 03:53:37;;;;;;;24.38;15.57;;;;;;;21.16;65.78;101712.16;5052741;28;20434;-62
2022/05/19 03:56:03;;;;;;;23.73;14.68;;;;;;;21.24;65.70;101705.72;5052400;28;20462;-62
2022/05/19 03:58:29;;;;;;;22.58;15.60;;;;;;;21.24;66.03;101694.97;5052419;28;20478;-62
2022/05/19 04:00:54;;;;;;;24.88;15.48;;;;;;;21.18;67.14;101700.44;5054972;28;20031;-62
2022/05/19 04:03:20;;;;;;;28.40;14.80;;;;;;;21.25;66.98;101685.97;5056103;28;20017;-61
2022/05/19 04:05:46;;;;;;;22.25;14.10;;;;;;;21.20;66.97;101689.69;5056853;28;20434;-62
2022/05/19 04:08:11;;;;;;;27.63;15.95;;;;;;;21.09;67.97;101706.00;5061340;28;20027;-62
2022/05/19 04:10:44;;;;;;;23.67;14.88;;;;;;;21.12;67.46;101711.31;5057897;28;20385;-61
2022/05/19 04:13:10;;;;;;;21.77;15.60;;;;;;;21.03;68.55;101716.88;5056941;28;20037;-61
2022/05/19 04:15:37;;;;;;;24.95;14.90;;;;;;;21.11;68.18;101720.31;5056062;28;20118;-61
2022/05/19 04:18:02;;;;;;;23.70;15.65;;;;;;;21.10;68.19;101709.56;5037993;28;20083;-61
2022/05/19 04:20:30;;;;;;;22.67;15.15;;;;;;;21.15;67.65;101700.50;5055941;28;20029;-62
2022/05/19 04:23:00;;;;;;;22.50;15.35;;;;;;;21.21;67.69;101716.53;5038111;28;20116;-61
2022/05/19 04:25:26;;;;;;;21.88;15.50;;;;;;;21.23;67.85;101709.28;5055458;28;20051;-61
2022/05/19 04:27:51;;;;;;;24.05;15.02;;;;;;;21.19;68.71;101714.78;5055555;28;20033;-61
2022/05/19 04:30:17;;;;;;;20.85;15.77;;;;;;;21.13;68.81;101712.22;5055568;28;20031;-61
2022/05/19 04:32:43;;;;;;;21.35;15.18;;;;;;;21.15;68.89;101715.75;5055725;28;20037;-61
2022/05/19 04:35:10;;;;;;;22.58;15.63;;;;;;;21.10;69.22;101712.25;5055489;28;20060;-61
2022/05/19 04:37:35;;;;;;;24.17;15.23;;;;;;;21.09;69.19;101706.00;5055649;28;20021;-62
2022/05/19 04:40:03;;;;;;;23.73;16.15;;;;;;;21.02;69.76;101694.47;5055807;28;20083;-62
2022/05/19 04:42:29;;;;;;;22.20;15.48;;;;;;;21.03;70.23;101700.75;5055285;28;20116;-62
2022/05/19 04:44:55;;;;;;;22.38;14.25;;;;;;;21.08;69.87;101695.28;5055707;28;20124;-62
2022/05/19 04:47:20;;;;;;;20.35;15.38;;;;;;;21.02;69.96;101698.97;5055598;28;20033;-61
2022/05/19 04:49:45;;;;;;;18.50;15.13;;;;;;;21.01;70.12;101692.69;5055304;28;20029;-62
2022/05/19 04:52:11;;;;;;;20.35;15.95;;;;;;;21.02;70.04;101705.22;5055148;28;20045;-62
2022/05/19 04:54:36;;;;;;;23.08;15.52;;;;;;;21.08;69.70;101703.34;5055213;28;20028;-61
2022/05/19 04:57:02;;;;;;;21.40;15.25;;;;;;;21.09;69.87;101699.75;5055173;28;20020;-62
2022/05/19 04:59:27;;;;;;;25.83;15.18;;;;;;;21.07;69.45;101698.88;5055031;28;20021;-62
2022/05/19 05:01:53;;;;;;;19.15;14.75;;;;;;;21.07;69.14;101694.41;5055356;28;20079;-61
2022/05/19 05:04:19;;;;;;;20.98;14.98;;;;;;;21.06;69.86;101689.94;5054936;28;20124;-62
2022/05/19 05:06:44;;;;;;;19.35;14.63;;;;;;;21.09;69.58;101697.06;5055028;28;20063;-62
2022/05/19 05:09:10;;;;;;;20.35;14.55;;;;;;;21.05;69.67;101698.91;5054949;28;20102;-61
2022/05/19 05:11:37;;;;;;;21.55;14.15;;;;;;;21.11;69.78;101705.97;5053879;28;20096;-62
2022/05/19 05:14:03;;;;;;;22.20;14.25;;;;;;;21.11;68.83;101700.59;5054660;28;20056;-62
2022/05/19 05:16:28;;;;;;;20.17;13.60;;;;;;;21.13;69.37;101699.66;5054801;28;20541;-61
2022/05/19 05:18:53;;;;;;;18.42;11.80;;;;;;;21.15;68.73;101689.75;5054729;28;20382;-62
2022/05/19 05:21:19;;;;;;;17.83;12.35;;;;;;;21.08;68.70;101688.13;5054752;28;20131;-62
2022/05/19 05:23:44;;;;;;;19.10;12.00;;;;;;;21.05;69.27;101681.91;5054623;28;20155;-61
2022/05/19 05:26:09;;;;;;;16.27;11.00;;;;;;;21.06;68.92;101676.50;5054628;28;20119;-62
2022/05/19 05:28:36;;;;;;;18.85;11.20;;;;;;;20.96;69.61;101662.34;5054435;28;20021;-62
2022/05/19 05:31:02;;;;;;;18.33;10.23;;;;;;;21.00;69.33;101649.75;5054478;28;20339;-62
2022/05/19 05:33:28;;;;;;;16.48;10.55;;;;;;;20.96;69.49;101638.19;5054678;28;20434;-62
2022/05/19 05:35:53;;;;;;;14.55;9.95;;;;;;;20.96;69.60;101637.28;5054296;28;20029;-61
2022/05/19 05:38:19;;;;;;;14.27;9.85;;;;;;;20.92;70.30;101647.22;5054368;28;20029;-62
2022/05/19 05:40:46;;;;;;;16.65;9.88;;;;;;;20.99;70.20;101640.81;5054316;28;20469;-62
2022/05/19 05:43:18;;;;;;;16.10;9.20;;;;;;;20.90;70.31;101635.63;5054151;28;20029;-63
2022/05/19 05:45:44;;;;;;;15.98;9.27;;;;;;;20.96;70.49;101618.47;5054145;28;20028;-63
2022/05/19 05:48:10;;;;;;;16.25;9.32;;;;;;;20.94;70.61;101598.81;5054080;28;20386;-63
2022/05/19 05:50:36;;;;;;;18.08;8.88;;;;;;;20.80;71.54;101607.16;5053962;28;20045;-63
2022/05/19 05:53:01;;;;;;;13.88;9.00;;;;;;;20.74;71.32;101618.91;5053982;28;20461;-63
2022/05/19 05:55:27;;;;;;;14.45;10.20;;;;;;;20.63;72.23;101602.09;5052577;28;20025;-63
2022/05/19 05:57:53;;;;;;;15.75;9.38;;;;;;;20.57;71.12;101586.09;5053873;28;20033;-63
2022/05/19 06:00:19;;;;;;;14.57;9.98;;;;;;;20.42;72.33;101594.41;5053980;28;20117;-63
2022/05/19 06:02:44;;;;;;;12.15;9.48;;;;;;;20.52;71.51;101605.91;5053773;28;20481;-62
2022/05/19 06:05:11;;;;;;;13.60;9.93;;;;;;;20.57;71.91;101609.41;5053738;28;20035;-63
2022/05/19 06:07:37;;;;;;;15.93;10.07;;;;;;;20.58;72.91;101584.31;5054142;28;20059;-63
2022/05/19 06:10:03;;;;;;;15.90;9.75;;;;;;;20.56;72.61;101568.22;5053720;28;20025;-63
2022/05/19 06:12:28;;;;;;;20.13;10.75;;;;;;;20.52;73.20;101565.63;5053741;28;20036;-63
2022/05/19 06:14:56;;;;;;;24.88;10.98;;;;;;;20.53;73.63;101600.50;5053229;28;20485;-63
2022/05/19 06:17:22;;;;;;;16.13;10.70;;;;;;;20.61;72.13;101611.09;5053648;28;20033;-63
2022/05/19 06:19:47;;;;;;;13.77;10.35;;;;;;;20.63;73.18;101609.25;5053399;28;20481;-63
2022/05/19 06:22:13;;;;;;;22.27;10.10;;;;;;;20.74;72.43;101621.59;5053601;28;20086;-63
2022/05/19 06:24:38;;;;;;;13.48;9.52;;;;;;;20.75;71.90;101617.09;5053247;28;20020;-63
2022/05/19 06:27:04;;;;;;;14.35;10.95;;;;;;;20.79;72.41;101626.00;5053433;28;20029;-63
2022/05/19 06:29:29;;;;;;;17.88;11.32;;;;;;;20.74;72.77;101608.16;5053436;28;20033;-63
2022/05/19 06:31:54;;;;;;;16.73;12.00;;;;;;;20.69;72.95;101599.31;5053135;28;20105;-63
2022/05/19 06:34:20;;;;;;;16.60;12.30;;;;;;;20.59;74.12;101592.31;5053245;28;20478;-63
2022/05/19 06:36:46;;;;;;;18.10;12.73;;;;;;;20.62;73.36;101588.69;5053179;28;20051;-62
2022/05/19 06:39:12;;;;;;;17.23;12.98;;;;;;;20.61;73.59;101582.44;5053488;28;20025;-63
2022/05/19 06:44:21;;;;;;;21.95;13.82;;;;;;;20.63;73.94;101582.41;5052991;28;20039;-63
2022/05/19 06:46:46;;;;;;;17.85;13.65;;;;;;;20.63;74.31;101585.97;5053140;28;20072;-63
2022/05/19 06:49:12;;;;;;;17.38;14.30;;;;;;;20.62;74.34;101581.53;5052802;28;20044;-63
2022/05/19 06:51:38;;;;;;;19.88;13.90;;;;;;;20.61;73.84;101582.44;5052721;28;20052;-62
2022/05/19 06:54:04;;;;;;;18.00;13.65;;;;;;;20.63;74.23;101577.03;5052997;28;20068;-63
2022/05/19 06:56:29;;;;;;;20.95;13.63;;;;;;;20.65;73.91;101570.75;5053317;28;20386;-62
2022/05/19 06:58:56;;;;;;;23.70;14.45;;;;;;;20.71;74.01;101572.41;5052789;28;20087;-63
2022/05/19 07:01:21;;;;;;;20.58;14.13;;;;;;;20.76;73.93;101592.00;5052887;28;20041;-63
2022/05/19 07:03:46;;;;;;;17.35;13.00;;;;;;;20.76;73.71;101595.56;5053047;28;20029;-62
2022/05/19 07:06:12;;;;;;;16.92;13.15;;;;;;;20.79;74.00;101591.94;5052759;28;20070;-62
2022/05/19 07:08:38;;;;;;;16.00;12.68;;;;;;;20.84;73.30;101602.59;5052723;28;20021;-62
2022/05/19 07:11:04;;;;;;;19.33;13.82;;;;;;;20.94;73.59;101597.03;5052834;28;20037;-62
2022/05/19 07:13:30;;;;;;;18.63;13.27;;;;;;;21.05;72.53;101582.47;5051172;28;20136;-62
2022/05/19 07:15:56;;;;;;;21.83;13.35;;;;;;;21.06;72.96;101577.06;5052674;28;20108;-63
2022/05/19 07:18:21;;;;;;;17.63;12.52;;;;;;;21.10;72.10;101569.81;5052530;28;20114;-62
2022/05/19 07:20:48;;;;;;;14.98;12.43;;;;;;;21.11;71.84;101564.44;5052385;28;20029;-62
2022/05/19 07:23:19;;;;;;;16.17;12.10;;;;;;;21.12;72.25;101558.13;5052415;28;20028;-62
2022/05/19 07:25:44;;;;;;;17.02;12.75;;;;;;;21.14;72.98;101567.03;5052356;28;20029;-62
2022/05/19 07:28:10;;;;;;;14.68;11.65;;;;;;;21.21;70.86;101557.03;5052541;28;20029;-62
2022/05/19 07:30:36;;;;;;;17.00;11.95;;;;;;;21.27;71.36;101556.91;5052438;28;20032;-63
2022/05/19 07:33:02;;;;;;;17.77;11.95;;;;;;;21.41;70.98;101549.47;5052392;28;20018;-63
2022/05/19 07:35:28;;;;;;;15.85;11.27;;;;;;;21.54;69.90;101543.78;5053980;28;20029;-62
2022/05/19 07:37:53;;;;;;;17.73;12.23;;;;;;;21.62;70.87;101539.97;5056711;28;20025;-62
2022/05/19 07:40:19;;;;;;;18.13;11.80;;;;;;;21.63;68.86;101552.53;5056808;28;20025;-62
2022/05/19 07:42:44;;;;;;;15.35;12.23;;;;;;;21.79;70.30;101570.97;5056259;28;20415;-62
2022/05/19 07:45:10;;;;;;;19.90;12.15;;;;;;;21.77;68.09;101578.22;5056591;28;20027;-63
2022/05/19 07:47:36;;;;;;;17.25;13.10;;;;;;;21.75;69.58;101580.91;5056641;28;20048;-62
2022/05/19 07:50:03;;;;;;;18.83;13.43;;;;;;;21.74;69.54;101587.22;5056437;28;20466;-62
2022/05/19 07:52:28;;;;;;;18.15;14.10;;;;;;;21.90;71.05;101587.75;5056187;28;20059;-62
2022/05/19 07:54:54;;;;;;;19.33;14.00;;;;;;;21.97;69.12;101584.88;5056363;28;20021;-62
2022/05/19 07:57:22;;;;;;;19.80;13.77;;;;;;;22.17;69.10;101575.44;5056313;28;20033;-62
2022/05/19 07:59:48;;;;;;;22.77;14.38;;;;;;;22.35;67.63;101572.25;5056183;28;20504;-62
2022/05/19 08:02:13;;;;;;;20.25;14.90;;;;;;;22.63;68.21;101582.31;5056160;28;20103;-62
2022/05/19 08:04:39;;;;;;;21.73;14.45;;;;;;;22.97;65.08;101575.06;5056169;28;20037;-62
2022/05/19 08:07:05;;;;;;;22.90;14.15;;;;;;;23.27;63.79;101574.19;5056183;28;20107;-62
2022/05/19 08:12:17;;;;;;;17.02;13.20;;;;;;;23.72;61.94;101562.00;5056242;28;20520;-62
2022/05/19 08:17:26;;;;;;;14.20;12.13;;;;;;;24.22;59.82;101559.41;5056405;28;20054;-62
2022/05/19 08:19:52;;;;;;;18.13;11.52;;;;;;;24.42;57.61;101566.84;5055867;28;20033;-62
2022/05/19 08:22:17;;;;;;;19.83;12.02;;;;;;;24.59;57.71;101568.06;5055966;28;20363;-62
2022/05/19 08:24:49;;;;;;;16.95;11.48;;;;;;;24.80;56.46;101574.53;5037901;28;20025;-62
2022/05/19 08:27:14;;;;;;;15.95;11.10;;;;;;;24.89;56.26;101576.88;5055829;28;20079;-63
2022/05/19 08:29:39;;;;;;;13.05;10.70;;;;;;;25.05;56.18;101571.75;5055808;28;20032;-62
2022/05/19 08:32:05;;;;;;;12.93;10.52;;;;;;;25.17;54.74;101576.72;5055886;28;20025;-62
2022/05/19 08:34:30;;;;;;;20.67;10.98;;;;;;;25.31;54.32;101573.47;5055669;28;20033;-62
2022/05/19 08:36:56;;;;;;;16.52;10.20;;;;;;;25.47;53.55;101577.34;5055533;28;20033;-62
2022/05/19 08:39:22;;;;;;;13.88;9.85;;;;;;;25.45;54.03;101569.31;5055867;28;20021;-62
2022/05/19 08:41:54;;;;;;;12.30;9.52;;;;;;;25.60;54.18;101566.91;5055427;28;20043;-63
2022/05/19 08:44:24;;;;;;;16.65;9.30;;;;;;;25.72;51.78;101563.72;5055535;28;20396;-62
2022/05/19 08:46:53;;;;;;;12.90;8.80;;;;;;;26.08;52.51;101555.94;5055604;28;20029;-62
2022/05/19 08:49:39;;;;;;;12.25;8.20;;;;;;;26.46;52.27;101548.84;5055374;28;20067;-62
2022/05/19 08:52:06;;;;;;;13.88;8.98;;;;;;;26.60;49.53;101553.69;5055132;28;20163;-62
2022/05/19 08:54:33;;;;;;;12.98;8.07;;;;;;;26.76;48.80;101545.72;5055214;28;20108;-62
2022/05/19 08:57:30;;;;;;;12.43;7.75;;;;;;;26.91;49.69;101553.16;5055138;28;20025;-62
2022/05/19 09:00:04;;;;;;;11.20;7.38;;;;;;;27.09;47.91;101537.88;5055157;28;20478;-62
2022/05/19 09:02:43;;;;;;;12.68;6.88;;;;;;;27.38;48.54;101539.22;5055045;28;20025;-61
2022/05/19 09:05:52;;;;;;;10.63;6.75;;;;;;;27.48;46.69;101534.19;5055252;28;20111;-62
2022/05/19 09:08:29;;;;;;;12.07;6.70;;;;;;;27.48;46.95;101530.59;5054971;28;20041;-62
2022/05/19 09:11:10;;;;;;;10.68;6.70;;;;;;;27.28;46.61;101537.91;5055026;28;20036;-62
2022/05/19 09:13:45;;;;;;;9.10;6.78;;;;;;;26.94;46.74;101531.31;5054996;28;20474;-62
2022/05/19 09:16:17;;;;;;;9.50;6.22;;;;;;;26.95;46.35;101524.94;5055013;28;20051;-62
2022/05/19 09:18:59;;;;;;;10.98;6.47;;;;;;;27.05;46.62;101525.38;5054666;28;20063;-62
2022/05/19 09:21:26;;;;;;;12.38;6.43;;;;;;;27.31;46.95;101526.88;5054910;28;20052;-62
2022/05/19 09:23:51;;;;;;;10.82;6.38;;;;;;;27.24;45.98;101517.28;5054559;28;20032;-62
2022/05/19 09:26:33;;;;;;;8.80;6.10;;;;;;;27.48;47.01;101523.34;5054749;28;20024;-62
2022/05/19 09:29:06;;;;;;;12.57;6.68;;;;;;;27.66;46.07;101519.69;5054692;28;20021;-62
2022/05/19 09:31:34;;;;;;;10.85;6.13;;;;;;;27.90;44.79;101505.88;5054667;28;20470;-61
2022/05/19 09:33:59;;;;;;;13.75;6.50;;;;;;;28.15;44.39;101517.25;5054443;28;20537;-61
2022/05/19 09:36:25;;;;;;;12.73;6.53;;;;;;;28.07;43.75;101510.47;5054292;28;20100;-62
2022/05/19 09:38:58;;;;;;;7.95;5.70;;;;;;;28.04;44.36;101513.31;5054522;28;20108;-62
2022/05/19 09:41:34;;;;;;;10.65;6.68;;;;;;;27.93;44.59;101516.59;5054504;28;20033;-61
2022/05/19 09:44:03;;;;;;;9.57;6.25;;;;;;;27.82;44.77;101522.56;5054438;28;20028;-61
2022/05/19 09:46:44;;;;;;;8.88;5.80;;;;;;;27.85;45.13;101519.72;5054354;28;20032;-62
2022/05/19 09:49:24;;;;;;;13.82;5.70;;;;;;;27.96;45.54;101521.84;5054264;28;20028;-62
2022/05/19 09:51:51;;;;;;;12.13;5.75;;;;;;;28.13;44.02;101526.44;5054112;28;20037;-62
2022/05/19 09:54:16;;;;;;;13.65;5.50;;;;;;;28.13;44.15;101524.59;5054601;28;20032;-62
2022/05/19 09:57:14;;;;;;;13.98;5.85;;;;;;;28.30;44.96;101517.41;5054213;28;20060;-61
2022/05/19 09:59:49;;;;;;;7.53;5.60;;;;;;;28.32;43.59;101507.34;4972852;28;20047;-62
2022/05/19 10:02:29;;;;;;;7.55;5.22;;;;;;;28.33;44.53;101509.09;4973267;28;20047;-61
2022/05/19 10:04:57;;;;;;;12.48;5.13;;;;;;;28.47;43.64;101498.38;4973256;28;20551;-62
2022/05/19 10:07:36;;;;;;;12.38;5.22;;;;;;;28.52;43.90;101484.53;4973154;28;20066;-62
2022/05/19 10:10:15;;;;;;;9.40;5.55;;;;;;;28.43;43.29;101497.66;4972711;28;20396;-62
2022/05/19 10:12:46;;;;;;;10.48;5.03;;;;;;;28.30;42.60;101484.78;4972970;28;20085;-62
2022/05/19 10:15:15;;;;;;;8.77;5.18;;;;;;;28.27;42.48;101484.97;4973128;28;20515;-62
2022/05/19 10:17:44;;;;;;;9.70;4.60;;;;;;;28.29;42.69;101466.72;4972981;28;20071;-61
2022/05/19 10:20:23;;;;;;;8.70;4.72;;;;;;;28.34;41.13;101453.75;4973022;28;20533;-62
2022/05/19 10:23:01;;;;;;;9.02;4.85;;;;;;;28.37;42.00;101446.34;4972626;28;20035;-62
2022/05/19 10:25:58;;;;;;;11.27;4.72;;;;;;;28.61;42.32;101444.13;4972805;28;20054;-62
2022/05/19 10:31:44;;;;;;;9.27;4.55;;;;;;;29.20;40.28;101452.63;4973049;28;20049;-62
2022/05/19 10:34:12;;;;;;;9.05;4.43;;;;;;;29.26;39.82;101454.13;4972602;28;20031;-62
2022/05/19 10:36:59;;;;;;;9.75;4.47;;;;;;;29.27;38.95;101445.00;5015253;28;20406;-62
2022/05/19 10:39:24;;;;;;;11.98;4.80;;;;;;;29.38;38.39;101442.53;5053177;28;20032;-62
2022/05/19 10:42:11;;;;;;;13.20;4.83;;;;;;;29.51;39.84;101437.22;5053239;28;20031;-62
2022/05/19 10:44:54;;;;;;;11.63;4.35;;;;;;;29.61;38.61;101450.25;5053086;28;20767;-62
2022/05/19 10:47:41;;;;;;;7.38;4.05;;;;;;;29.52;38.10;101448.03;5053233;28;20029;-62
2022/05/19 10:50:11;;;;;;;6.93;4.10;;;;;;;29.56;38.73;101456.94;5052855;28;20056;-62
2022/05/19 10:53:01;;;;;;;8.90;4.03;;;;;;;29.45;38.37;101452.94;5052958;28;20037;-62
2022/05/19 10:55:32;;;;;;;10.57;4.32;;;;;;;29.33;38.50;101441.91;5053041;28;20044;-62
2022/05/19 10:58:08;;;;;;;10.73;4.30;;;;;;;29.25;39.12;101442.38;5053137;28;20485;-62
2022/05/19 11:00:58;;;;;;;12.07;4.03;;;;;;;29.27;39.56;101431.38;5052891;28;20474;-62
2022/05/19 11:03:58;;;;;;;13.85;4.13;;;;;;;29.34;39.44;101447.28;5053002;28;20025;-62
2022/05/19 11:06:29;;;;;;;11.52;4.30;;;;;;;29.17;38.45;101437.38;4972260;28;20050;-62
2022/05/19 11:09:00;;;;;;;9.35;3.97;;;;;;;29.16;38.78;101438.34;4971791;28;20536;-62
2022/05/19 11:11:43;;;;;;;7.13;4.03;;;;;;;29.15;39.61;101430.25;4971704;28;20039;-62
2022/05/19 11:14:16;;;;;;;15.05;3.70;;;;;;;29.18;38.71;101430.94;4972108;28;20057;-62
2022/05/19 11:16:58;;;;;;;12.48;4.38;;;;;;;29.13;38.89;101426.75;4972112;28;20027;-62
2022/05/19 11:19:32;;;;;;;7.43;3.97;;;;;;;29.06;38.36;101422.63;4971918;28;20121;-62
2022/05/19 11:22:07;;;;;;;6.22;3.60;;;;;;;28.85;38.87;101424.69;4972085;28;20031;-62
2022/05/19 11:27:38;;;;;;;9.93;3.90;;;;;;;28.26;40.08;101446.00;4972277;28;20069;-62
2022/05/19 11:30:17;;;;;;;9.57;4.20;;;;;;;28.14;40.45;101450.28;4971902;28;20491;-62
2022/05/19 11:32:43;;;;;;;8.13;3.95;;;;;;;28.00;40.67;101460.97;4972152;28;20396;-61
2022/05/19 11:35:22;;;;;;;7.35;4.00;;;;;;;27.94;40.66;101470.34;4971801;28;20114;-62
2022/05/19 11:38:03;;;;;;;5.82;4.00;;;;;;;27.92;40.94;101472.28;4971892;28;20074;-62
2022/05/19 11:40:33;;;;;;;11.23;4.20;;;;;;;27.90;41.51;101470.56;4971724;28;20055;-62